Admiral Richard E. Bennis — WDB4785 — position and weather

sailwx.info

Track history (hours):
 
Tides and Currents Weather Stations Pressure Air Temp Water Temp Dewpoint Dewpoint Depression Visibility Wind Speed Wind Dir Waves Ship Positions

Admiral Richard E. Bennis

Owner: PORT IMPERIAL FERRY CORP, WEEHAWKEN, NJ. More information available from US FCC via Universal Licensing System and Coast Guard Vessel Documentation Center.

Last reported at 2015-Mar-02 14:23 UTC. Time now 2015-Mar-02 15:01 UTC.
Position N 40°46' W 074°01'.

Length 26 m.

Type: Passenger vessel. MMSI: 366902320.

Date/timePositionNaut miles runAvg speedWind from/ knotsBaromVisibWave heightAir tempDewpointWater temp
2015-Mar-02 14:23N 40°46' W 074°01'2 2.7
2015-Mar-02 13:33N 40°44' W 074°02'1 1.2
2015-Mar-02 12:34N 40°45' W 074°01'  
2015-Feb-27 15:33N 40°46' W 074°01'0 0.4
2015-Feb-27 14:33N 40°46' W 074°01'4 4.2
2015-Feb-27 13:33N 40°42' W 074°00'1 1.4
2015-Feb-27 12:34N 40°43' W 074°02'1 1.1
2015-Feb-27 11:33N 40°44' W 074°02'0 0.0
2015-Feb-27 10:33N 40°44' W 074°02'0 0.0
2015-Feb-26 23:18N 40°44' W 074°02'0 0.0
2015-Feb-26 22:33N 40°44' W 074°02'0 0.0
2015-Feb-26 21:32N 40°44' W 074°02'0 0.0
2015-Feb-26 20:33N 40°44' W 074°02'0 0.0
2015-Feb-26 14:28N 40°44' W 074°02'0 0.0
2015-Feb-26 13:33N 40°44' W 074°02'0 0.0
2015-Feb-26 12:33N 40°44' W 074°02'0 0.5
2015-Feb-26 11:33N 40°44' W 074°02'0 0.0
2015-Feb-26 00:04N 40°44' W 074°02'2 4.7
2015-Feb-25 23:33N 40°42' W 074°01'2 2.3
2015-Feb-25 22:30N 40°44' W 074°02'2 2.2
2015-Feb-25 21:31N 40°42' W 074°00'0 0.3
2015-Feb-25 20:33N 40°42' W 074°01'2 0.4
2015-Feb-25 15:17N 40°44' W 074°02'0 0.0
2015-Feb-25 14:33N 40°44' W 074°02'0 0.0
2015-Feb-25 13:33N 40°44' W 074°02'2 2.1
2015-Feb-25 12:28N 40°42' W 074°01'2 1.8
2015-Feb-25 11:33N 40°43' W 074°01'1 0.0
2015-Feb-24 00:33N 40°44' W 074°02'0 0.0
2015-Feb-23 23:33N 40°44' W 074°02'0 0.0
2015-Feb-23 22:33N 40°44' W 074°02'2 1.7
2015-Feb-23 21:33N 40°42' W 074°02'2 1.7
2015-Feb-23 20:33N 40°44' W 074°02'2 2.3
2015-Feb-23 19:33N 40°46' W 074°01'0 0.0
2015-Feb-23 15:14N 40°46' W 074°01'5 6.6
2015-Feb-23 14:33N 40°42' W 074°01'1 1.4
2015-Feb-23 13:33N 40°43' W 074°02'0 0.1
2015-Feb-23 12:33N 40°43' W 074°01'  
2015-Feb-21 01:34N 40°46' W 074°01'4 3.6
2015-Feb-21 00:33N 40°43' W 074°02'0 0.0
2015-Feb-20 23:33N 40°43' W 074°02'2 2.2
2015-Feb-20 22:33N 40°41' W 074°02'1 0.8
2015-Feb-20 21:33N 40°41' W 074°02'1 1.0
2015-Feb-20 20:33N 40°42' W 074°01'0 0.4
2015-Feb-20 19:33N 40°42' W 074°00'1 1.4
2015-Feb-20 18:34N 40°43' W 074°02'3 2.8
2015-Feb-20 17:34N 40°46' W 074°01'1 0.8
2015-Feb-20 16:34N 40°46' W 074°01'0 0.0
2015-Feb-20 15:33N 40°46' W 074°01'0 0.0
2015-Feb-20 14:33N 40°46' W 074°01'  
Track history (hours):
 
Tides and Currents Weather Stations Pressure Air Temp Water Temp Dewpoint Dewpoint Depression Visibility Wind Speed Wind Dir Waves Ship Positions

Admiral Richard E. Bennis

Owner: PORT IMPERIAL FERRY CORP, WEEHAWKEN, NJ. More information available from US FCC via Universal Licensing System and Coast Guard Vessel Documentation Center.

Last reported at 2015-Mar-02 14:23 UTC. Time now 2015-Mar-02 15:01 UTC.
Position N 40°46' W 074°01'.

Length 26 m.

Type: Passenger vessel. MMSI: 366902320.

Date/timePositionNaut miles runAvg speedWind from/ knotsBaromVisibWave heightAir tempDewpointWater temp
2015-Mar-02 14:23N 40°46' W 074°01'2 2.7
2015-Mar-02 13:33N 40°44' W 074°02'1 1.2
2015-Mar-02 12:34N 40°45' W 074°01'  
2015-Feb-27 15:33N 40°46' W 074°01'0 0.4
2015-Feb-27 14:33N 40°46' W 074°01'4 4.2
2015-Feb-27 13:33N 40°42' W 074°00'1 1.4
2015-Feb-27 12:34N 40°43' W 074°02'1 1.1
2015-Feb-27 11:33N 40°44' W 074°02'0 0.0
2015-Feb-27 10:33N 40°44' W 074°02'0 0.0
2015-Feb-26 23:18N 40°44' W 074°02'0 0.0
2015-Feb-26 22:33N 40°44' W 074°02'0 0.0
2015-Feb-26 21:32N 40°44' W 074°02'0 0.0
2015-Feb-26 20:33N 40°44' W 074°02'0 0.0
2015-Feb-26 14:28N 40°44' W 074°02'0 0.0
2015-Feb-26 13:33N 40°44' W 074°02'0 0.0
2015-Feb-26 12:33N 40°44' W 074°02'0 0.5
2015-Feb-26 11:33N 40°44' W 074°02'0 0.0
2015-Feb-26 00:04N 40°44' W 074°02'2 4.7
2015-Feb-25 23:33N 40°42' W 074°01'2 2.3
2015-Feb-25 22:30N 40°44' W 074°02'2 2.2
2015-Feb-25 21:31N 40°42' W 074°00'0 0.3
2015-Feb-25 20:33N 40°42' W 074°01'2 0.4
2015-Feb-25 15:17N 40°44' W 074°02'0 0.0
2015-Feb-25 14:33N 40°44' W 074°02'0 0.0
2015-Feb-25 13:33N 40°44' W 074°02'2 2.1
2015-Feb-25 12:28N 40°42' W 074°01'2 1.8
2015-Feb-25 11:33N 40°43' W 074°01'1 0.0
2015-Feb-24 00:33N 40°44' W 074°02'0 0.0
2015-Feb-23 23:33N 40°44' W 074°02'0 0.0
2015-Feb-23 22:33N 40°44' W 074°02'2 1.7
2015-Feb-23 21:33N 40°42' W 074°02'2 1.7
2015-Feb-23 20:33N 40°44' W 074°02'2 2.3
2015-Feb-23 19:33N 40°46' W 074°01'0 0.0
2015-Feb-23 15:14N 40°46' W 074°01'5 6.6
2015-Feb-23 14:33N 40°42' W 074°01'1 1.4
2015-Feb-23 13:33N 40°43' W 074°02'0 0.1
2015-Feb-23 12:33N 40°43' W 074°01'  
2015-Feb-21 01:34N 40°46' W 074°01'4 3.6
2015-Feb-21 00:33N 40°43' W 074°02'0 0.0
2015-Feb-20 23:33N 40°43' W 074°02'2 2.2
2015-Feb-20 22:33N 40°41' W 074°02'1 0.8
2015-Feb-20 21:33N 40°41' W 074°02'1 1.0
2015-Feb-20 20:33N 40°42' W 074°01'0 0.4
2015-Feb-20 19:33N 40°42' W 074°00'1 1.4
2015-Feb-20 18:34N 40°43' W 074°02'3 2.8
2015-Feb-20 17:34N 40°46' W 074°01'1 0.8
2015-Feb-20 16:34N 40°46' W 074°01'0 0.0
2015-Feb-20 15:33N 40°46' W 074°01'0 0.0
2015-Feb-20 14:33N 40°46' W 074°01'  

Dump ship's entire track history